sensor_id;sensor_type;location;lat;lon;timestamp;P1;durP1;ratioP1;P2;durP2;ratioP2
7263;SDS011;3673;52.480;13.348;2022-10-15T00:01:30;27.08;;;17.10;;
7263;SDS011;3673;52.480;13.348;2022-10-15T00:03:57;22.48;;;17.23;;
7263;SDS011;3673;52.480;13.348;2022-10-15T00:06:25;25.15;;;19.02;;
7263;SDS011;3673;52.480;13.348;2022-10-15T00:08:52;26.30;;;19.00;;
7263;SDS011;3673;52.480;13.348;2022-10-15T00:11:19;25.27;;;18.27;;
7263;SDS011;3673;52.480;13.348;2022-10-15T00:13:50;23.70;;;18.35;;
7263;SDS011;3673;52.480;13.348;2022-10-15T00:16:20;26.25;;;19.20;;
7263;SDS011;3673;52.480;13.348;2022-10-15T00:18:50;26.63;;;18.40;;
7263;SDS011;3673;52.480;13.348;2022-10-15T00:21:18;22.20;;;18.08;;
7263;SDS011;3673;52.480;13.348;2022-10-15T00:23:47;24.38;;;18.73;;
7263;SDS011;3673;52.480;13.348;2022-10-15T00:26:15;23.88;;;18.50;;
7263;SDS011;3673;52.480;13.348;2022-10-15T00:28:44;25.35;;;20.00;;
7263;SDS011;3673;52.480;13.348;2022-10-15T00:31:12;26.02;;;18.52;;
7263;SDS011;3673;52.480;13.348;2022-10-15T00:33:42;26.95;;;18.15;;
7263;SDS011;3673;52.480;13.348;2022-10-15T00:36:10;24.60;;;19.00;;
7263;SDS011;3673;52.480;13.348;2022-10-15T00:38:40;23.92;;;19.40;;
7263;SDS011;3673;52.480;13.348;2022-10-15T00:41:09;25.20;;;18.80;;
7263;SDS011;3673;52.480;13.348;2022-10-15T00:43:43;27.38;;;19.40;;
7263;SDS011;3673;52.480;13.348;2022-10-15T00:46:15;27.52;;;19.58;;
7263;SDS011;3673;52.480;13.348;2022-10-15T00:48:51;31.05;;;20.38;;
7263;SDS011;3673;52.480;13.348;2022-10-15T00:51:22;29.02;;;19.73;;
7263;SDS011;3673;52.480;13.348;2022-10-15T00:53:54;32.35;;;19.73;;
7263;SDS011;3673;52.480;13.348;2022-10-15T00:56:21;23.25;;;19.02;;
7263;SDS011;3673;52.480;13.348;2022-10-15T00:58:52;28.90;;;21.30;;
7263;SDS011;3673;52.480;13.348;2022-10-15T01:01:20;23.02;;;19.05;;
7263;SDS011;3673;52.480;13.348;2022-10-15T01:03:50;27.77;;;19.70;;
7263;SDS011;3673;52.480;13.348;2022-10-15T01:06:19;27.92;;;19.65;;
7263;SDS011;3673;52.480;13.348;2022-10-15T01:08:46;24.13;;;19.15;;
7263;SDS011;3673;52.480;13.348;2022-10-15T01:11:16;24.05;;;19.45;;
7263;SDS011;3673;52.480;13.348;2022-10-15T01:13:59;30.40;;;21.13;;
7263;SDS011;3673;52.480;13.348;2022-10-15T01:16:35;24.17;;;19.83;;
7263;SDS011;3673;52.480;13.348;2022-10-15T01:19:16;22.45;;;18.23;;
7263;SDS011;3673;52.480;13.348;2022-10-15T01:21:57;30.33;;;21.48;;
7263;SDS011;3673;52.480;13.348;2022-10-15T01:24:43;28.23;;;20.67;;
7263;SDS011;3673;52.480;13.348;2022-10-15T01:27:30;28.63;;;20.42;;
7263;SDS011;3673;52.480;13.348;2022-10-15T01:33:02;28.42;;;21.02;;
7263;SDS011;3673;52.480;13.348;2022-10-15T01:35:50;25.02;;;18.25;;
7263;SDS011;3673;52.480;13.348;2022-10-15T01:41:15;28.83;;;20.23;;
7263;SDS011;3673;52.480;13.348;2022-10-15T01:43:50;24.75;;;19.92;;
7263;SDS011;3673;52.480;13.348;2022-10-15T01:46:27;29.67;;;20.05;;
7263;SDS011;3673;52.480;13.348;2022-10-15T01:49:02;30.00;;;20.80;;
7263;SDS011;3673;52.480;13.348;2022-10-15T01:51:30;33.85;;;20.35;;
7263;SDS011;3673;52.480;13.348;2022-10-15T01:54:00;27.08;;;21.25;;
7263;SDS011;3673;52.480;13.348;2022-10-15T01:56:30;28.13;;;21.42;;
7263;SDS011;3673;52.480;13.348;2022-10-15T01:59:00;29.85;;;21.70;;
7263;SDS011;3673;52.480;13.348;2022-10-15T02:01:29;32.58;;;23.50;;
7263;SDS011;3673;52.480;13.348;2022-10-15T02:03:56;26.23;;;19.88;;
7263;SDS011;3673;52.480;13.348;2022-10-15T02:06:24;27.92;;;20.15;;
7263;SDS011;3673;52.480;13.348;2022-10-15T02:09:14;27.52;;;20.15;;
7263;SDS011;3673;52.480;13.348;2022-10-15T02:12:04;26.70;;;20.30;;
7263;SDS011;3673;52.480;13.348;2022-10-15T02:14:42;26.30;;;19.65;;
7263;SDS011;3673;52.480;13.348;2022-10-15T02:17:20;28.17;;;19.58;;
7263;SDS011;3673;52.480;13.348;2022-10-15T02:19:55;26.67;;;19.90;;
7263;SDS011;3673;52.480;13.348;2022-10-15T02:22:27;30.10;;;21.08;;
7263;SDS011;3673;52.480;13.348;2022-10-15T02:25:02;29.90;;;21.27;;
7263;SDS011;3673;52.480;13.348;2022-10-15T02:27:34;25.92;;;19.60;;
7263;SDS011;3673;52.480;13.348;2022-10-15T02:30:02;25.35;;;19.77;;
7263;SDS011;3673;52.480;13.348;2022-10-15T02:32:35;26.75;;;20.25;;
7263;SDS011;3673;52.480;13.348;2022-10-15T02:35:06;25.90;;;20.30;;
7263;SDS011;3673;52.480;13.348;2022-10-15T02:37:35;27.67;;;20.52;;
7263;SDS011;3673;52.480;13.348;2022-10-15T02:40:06;27.50;;;20.63;;
7263;SDS011;3673;52.480;13.348;2022-10-15T02:42:34;27.38;;;20.63;;
7263;SDS011;3673;52.480;13.348;2022-10-15T02:45:01;25.63;;;19.90;;
7263;SDS011;3673;52.480;13.348;2022-10-15T02:47:28;24.52;;;19.65;;
7263;SDS011;3673;52.480;13.348;2022-10-15T02:49:56;26.73;;;20.45;;
7263;SDS011;3673;52.480;13.348;2022-10-15T02:52:23;28.02;;;19.83;;
7263;SDS011;3673;52.480;13.348;2022-10-15T02:54:50;26.27;;;20.13;;
7263;SDS011;3673;52.480;13.348;2022-10-15T02:57:16;27.13;;;20.00;;
7263;SDS011;3673;52.480;13.348;2022-10-15T02:59:43;28.00;;;20.05;;
7263;SDS011;3673;52.480;13.348;2022-10-15T03:02:10;29.27;;;21.65;;
7263;SDS011;3673;52.480;13.348;2022-10-15T03:04:37;30.00;;;22.10;;
7263;SDS011;3673;52.480;13.348;2022-10-15T03:07:05;28.33;;;20.33;;
7263;SDS011;3673;52.480;13.348;2022-10-15T03:09:31;28.45;;;20.90;;
7263;SDS011;3673;52.480;13.348;2022-10-15T03:11:58;28.30;;;20.60;;
7263;SDS011;3673;52.480;13.348;2022-10-15T03:14:25;30.40;;;21.50;;
7263;SDS011;3673;52.480;13.348;2022-10-15T03:16:51;29.60;;;21.00;;
7263;SDS011;3673;52.480;13.348;2022-10-15T03:19:18;25.50;;;20.52;;
7263;SDS011;3673;52.480;13.348;2022-10-15T03:21:45;26.23;;;19.83;;
7263;SDS011;3673;52.480;13.348;2022-10-15T03:24:13;25.58;;;19.95;;
7263;SDS011;3673;52.480;13.348;2022-10-15T03:26:40;30.33;;;21.08;;
7263;SDS011;3673;52.480;13.348;2022-10-15T03:29:06;25.27;;;19.83;;
7263;SDS011;3673;52.480;13.348;2022-10-15T03:31:33;25.33;;;19.83;;
7263;SDS011;3673;52.480;13.348;2022-10-15T03:34:00;27.10;;;19.52;;
7263;SDS011;3673;52.480;13.348;2022-10-15T03:36:27;31.77;;;20.80;;
7263;SDS011;3673;52.480;13.348;2022-10-15T03:38:53;27.15;;;20.20;;
7263;SDS011;3673;52.480;13.348;2022-10-15T03:41:21;29.00;;;20.08;;
7263;SDS011;3673;52.480;13.348;2022-10-15T03:43:49;24.70;;;19.73;;
7263;SDS011;3673;52.480;13.348;2022-10-15T03:46:15;26.35;;;19.98;;
7263;SDS011;3673;52.480;13.348;2022-10-15T03:48:42;28.95;;;20.23;;
7263;SDS011;3673;52.480;13.348;2022-10-15T03:51:09;29.70;;;21.38;;
7263;SDS011;3673;52.480;13.348;2022-10-15T03:53:35;25.67;;;19.77;;
7263;SDS011;3673;52.480;13.348;2022-10-15T03:56:03;23.00;;;17.95;;
7263;SDS011;3673;52.480;13.348;2022-10-15T03:58:32;26.17;;;19.73;;
7263;SDS011;3673;52.480;13.348;2022-10-15T04:00:59;29.17;;;19.33;;
7263;SDS011;3673;52.480;13.348;2022-10-15T04:03:26;25.70;;;19.00;;
7263;SDS011;3673;52.480;13.348;2022-10-15T04:05:52;24.63;;;18.63;;
7263;SDS011;3673;52.480;13.348;2022-10-15T04:08:19;27.98;;;20.50;;
7263;SDS011;3673;52.480;13.348;2022-10-15T04:10:46;26.42;;;19.98;;
7263;SDS011;3673;52.480;13.348;2022-10-15T04:13:13;26.15;;;19.50;;
7263;SDS011;3673;52.480;13.348;2022-10-15T04:15:41;26.17;;;19.90;;
7263;SDS011;3673;52.480;13.348;2022-10-15T04:18:07;28.25;;;20.15;;
7263;SDS011;3673;52.480;13.348;2022-10-15T04:20:34;27.38;;;19.45;;
7263;SDS011;3673;52.480;13.348;2022-10-15T04:23:01;27.10;;;19.90;;
7263;SDS011;3673;52.480;13.348;2022-10-15T04:25:27;29.92;;;21.25;;
7263;SDS011;3673;52.480;13.348;2022-10-15T04:27:54;27.42;;;18.17;;
7263;SDS011;3673;52.480;13.348;2022-10-15T04:30:21;23.65;;;18.80;;
7263;SDS011;3673;52.480;13.348;2022-10-15T04:32:51;26.10;;;18.90;;
7263;SDS011;3673;52.480;13.348;2022-10-15T04:35:18;23.55;;;18.50;;
7263;SDS011;3673;52.480;13.348;2022-10-15T04:37:45;26.10;;;18.25;;
7263;SDS011;3673;52.480;13.348;2022-10-15T04:40:12;25.80;;;17.95;;
7263;SDS011;3673;52.480;13.348;2022-10-15T04:42:39;23.85;;;18.10;;
7263;SDS011;3673;52.480;13.348;2022-10-15T04:45:07;22.95;;;18.63;;
7263;SDS011;3673;52.480;13.348;2022-10-15T04:47:34;23.45;;;17.70;;
7263;SDS011;3673;52.480;13.348;2022-10-15T04:50:02;23.85;;;18.02;;
7263;SDS011;3673;52.480;13.348;2022-10-15T04:52:29;22.08;;;17.75;;
7263;SDS011;3673;52.480;13.348;2022-10-15T04:54:56;23.50;;;18.75;;
7263;SDS011;3673;52.480;13.348;2022-10-15T04:57:23;23.02;;;16.38;;
7263;SDS011;3673;52.480;13.348;2022-10-15T04:59:50;21.50;;;16.05;;
7263;SDS011;3673;52.480;13.348;2022-10-15T05:02:17;24.60;;;18.27;;
7263;SDS011;3673;52.480;13.348;2022-10-15T05:04:44;21.25;;;17.25;;
7263;SDS011;3673;52.480;13.348;2022-10-15T05:07:12;20.30;;;15.93;;
7263;SDS011;3673;52.480;13.348;2022-10-15T05:09:39;22.58;;;17.42;;
7263;SDS011;3673;52.480;13.348;2022-10-15T05:12:06;21.33;;;17.13;;
7263;SDS011;3673;52.480;13.348;2022-10-15T05:14:32;21.42;;;17.85;;
7263;SDS011;3673;52.480;13.348;2022-10-15T05:16:59;28.33;;;18.10;;
7263;SDS011;3673;52.480;13.348;2022-10-15T05:19:26;19.55;;;16.02;;
7263;SDS011;3673;52.480;13.348;2022-10-15T05:21:53;20.63;;;16.13;;
7263;SDS011;3673;52.480;13.348;2022-10-15T05:24:21;25.30;;;17.35;;
7263;SDS011;3673;52.480;13.348;2022-10-15T05:26:47;19.02;;;16.02;;
7263;SDS011;3673;52.480;13.348;2022-10-15T05:29:14;21.23;;;15.93;;
7263;SDS011;3673;52.480;13.348;2022-10-15T05:31:41;19.75;;;15.68;;
7263;SDS011;3673;52.480;13.348;2022-10-15T05:34:08;20.20;;;16.35;;
7263;SDS011;3673;52.480;13.348;2022-10-15T05:36:34;20.42;;;15.73;;
7263;SDS011;3673;52.480;13.348;2022-10-15T05:39:03;21.75;;;16.27;;
7263;SDS011;3673;52.480;13.348;2022-10-15T05:41:35;21.85;;;16.02;;
7263;SDS011;3673;52.480;13.348;2022-10-15T05:44:02;24.17;;;16.73;;
7263;SDS011;3673;52.480;13.348;2022-10-15T05:46:29;24.42;;;16.17;;
7263;SDS011;3673;52.480;13.348;2022-10-15T05:48:56;25.67;;;17.05;;
7263;SDS011;3673;52.480;13.348;2022-10-15T05:51:23;21.02;;;16.00;;
7263;SDS011;3673;52.480;13.348;2022-10-15T05:53:52;29.90;;;16.73;;
7263;SDS011;3673;52.480;13.348;2022-10-15T05:56:19;24.42;;;16.42;;
7263;SDS011;3673;52.480;13.348;2022-10-15T05:58:48;19.30;;;15.02;;
7263;SDS011;3673;52.480;13.348;2022-10-15T06:01:15;20.27;;;15.48;;
7263;SDS011;3673;52.480;13.348;2022-10-15T06:03:43;19.98;;;15.77;;
7263;SDS011;3673;52.480;13.348;2022-10-15T06:06:14;19.67;;;15.48;;
7263;SDS011;3673;52.480;13.348;2022-10-15T06:08:43;18.58;;;15.27;;
7263;SDS011;3673;52.480;13.348;2022-10-15T06:11:10;21.20;;;16.13;;
7263;SDS011;3673;52.480;13.348;2022-10-15T06:13:37;16.40;;;14.57;;
7263;SDS011;3673;52.480;13.348;2022-10-15T06:16:07;21.42;;;15.43;;
7263;SDS011;3673;52.480;13.348;2022-10-15T06:18:35;20.63;;;16.05;;
7263;SDS011;3673;52.480;13.348;2022-10-15T06:21:03;23.95;;;15.73;;
7263;SDS011;3673;52.480;13.348;2022-10-15T06:23:30;22.88;;;15.88;;
7263;SDS011;3673;52.480;13.348;2022-10-15T06:26:00;20.50;;;16.05;;
7263;SDS011;3673;52.480;13.348;2022-10-15T06:28:28;25.90;;;19.02;;
7263;SDS011;3673;52.480;13.348;2022-10-15T06:30:56;29.58;;;16.27;;
7263;SDS011;3673;52.480;13.348;2022-10-15T06:33:25;19.70;;;16.02;;
7263;SDS011;3673;52.480;13.348;2022-10-15T06:35:54;22.08;;;16.85;;
7263;SDS011;3673;52.480;13.348;2022-10-15T06:38:25;21.50;;;15.00;;
7263;SDS011;3673;52.480;13.348;2022-10-15T06:40:51;19.33;;;14.98;;
7263;SDS011;3673;52.480;13.348;2022-10-15T06:43:18;22.42;;;16.63;;
7263;SDS011;3673;52.480;13.348;2022-10-15T06:45:45;19.70;;;15.30;;
7263;SDS011;3673;52.480;13.348;2022-10-15T06:48:12;24.75;;;15.45;;
7263;SDS011;3673;52.480;13.348;2022-10-15T06:50:40;21.00;;;15.70;;
7263;SDS011;3673;52.480;13.348;2022-10-15T06:53:07;22.42;;;15.35;;
7263;SDS011;3673;52.480;13.348;2022-10-15T06:55:33;20.30;;;16.48;;
7263;SDS011;3673;52.480;13.348;2022-10-15T06:58:00;19.98;;;17.13;;
7263;SDS011;3673;52.480;13.348;2022-10-15T07:00:27;23.75;;;17.73;;
7263;SDS011;3673;52.480;13.348;2022-10-15T07:02:54;18.73;;;15.38;;
7263;SDS011;3673;52.480;13.348;2022-10-15T07:05:21;21.65;;;15.90;;
7263;SDS011;3673;52.480;13.348;2022-10-15T07:07:52;22.10;;;16.55;;
7263;SDS011;3673;52.480;13.348;2022-10-15T07:10:19;21.50;;;16.45;;
7263;SDS011;3673;52.480;13.348;2022-10-15T07:12:46;20.67;;;15.43;;
7263;SDS011;3673;52.480;13.348;2022-10-15T07:15:13;21.15;;;15.50;;
7263;SDS011;3673;52.480;13.348;2022-10-15T07:17:45;16.70;;;14.68;;
7263;SDS011;3673;52.480;13.348;2022-10-15T07:20:13;18.33;;;14.32;;
7263;SDS011;3673;52.480;13.348;2022-10-15T07:22:40;19.80;;;15.13;;
7263;SDS011;3673;52.480;13.348;2022-10-15T07:25:08;20.80;;;14.32;;
7263;SDS011;3673;52.480;13.348;2022-10-15T07:27:36;15.73;;;13.15;;
7263;SDS011;3673;52.480;13.348;2022-10-15T07:30:03;21.08;;;14.70;;
7263;SDS011;3673;52.480;13.348;2022-10-15T07:32:33;17.30;;;14.15;;
7263;SDS011;3673;52.480;13.348;2022-10-15T07:35:00;20.02;;;14.07;;
7263;SDS011;3673;52.480;13.348;2022-10-15T07:37:27;15.77;;;13.23;;
7263;SDS011;3673;52.480;13.348;2022-10-15T07:39:53;20.48;;;13.18;;
7263;SDS011;3673;52.480;13.348;2022-10-15T07:42:22;14.68;;;12.65;;
7263;SDS011;3673;52.480;13.348;2022-10-15T07:44:49;15.25;;;12.60;;
7263;SDS011;3673;52.480;13.348;2022-10-15T07:47:15;19.27;;;13.23;;
7263;SDS011;3673;52.480;13.348;2022-10-15T07:49:42;18.17;;;13.30;;
7263;SDS011;3673;52.480;13.348;2022-10-15T07:52:10;16.58;;;12.98;;
7263;SDS011;3673;52.480;13.348;2022-10-15T07:54:37;16.00;;;12.50;;
7263;SDS011;3673;52.480;13.348;2022-10-15T07:57:03;17.70;;;11.65;;
7263;SDS011;3673;52.480;13.348;2022-10-15T07:59:33;14.68;;;11.18;;
7263;SDS011;3673;52.480;13.348;2022-10-15T08:02:00;12.55;;;10.40;;
7263;SDS011;3673;52.480;13.348;2022-10-15T08:04:26;12.13;;;10.27;;
7263;SDS011;3673;52.480;13.348;2022-10-15T08:06:53;10.15;;;9.07;;
7263;SDS011;3673;52.480;13.348;2022-10-15T08:09:21;12.82;;;10.35;;
7263;SDS011;3673;52.480;13.348;2022-10-15T08:11:48;12.73;;;10.10;;
7263;SDS011;3673;52.480;13.348;2022-10-15T08:14:14;12.15;;;10.85;;
7263;SDS011;3673;52.480;13.348;2022-10-15T08:16:43;11.13;;;8.52;;
7263;SDS011;3673;52.480;13.348;2022-10-15T08:19:09;11.23;;;9.50;;
7263;SDS011;3673;52.480;13.348;2022-10-15T08:21:36;10.32;;;9.02;;
7263;SDS011;3673;52.480;13.348;2022-10-15T08:24:03;11.05;;;9.52;;
7263;SDS011;3673;52.480;13.348;2022-10-15T08:26:31;12.95;;;9.32;;
7263;SDS011;3673;52.480;13.348;2022-10-15T08:28:58;15.45;;;8.65;;
7263;SDS011;3673;52.480;13.348;2022-10-15T08:31:25;10.05;;;8.80;;
7263;SDS011;3673;52.480;13.348;2022-10-15T08:33:53;10.93;;;8.93;;
7263;SDS011;3673;52.480;13.348;2022-10-15T08:36:20;12.82;;;9.68;;
7263;SDS011;3673;52.480;13.348;2022-10-15T08:38:47;11.50;;;8.68;;
7263;SDS011;3673;52.480;13.348;2022-10-15T08:41:17;10.38;;;9.27;;
7263;SDS011;3673;52.480;13.348;2022-10-15T08:43:50;10.65;;;8.93;;
7263;SDS011;3673;52.480;13.348;2022-10-15T08:46:18;12.88;;;10.38;;
7263;SDS011;3673;52.480;13.348;2022-10-15T08:48:51;14.80;;;10.65;;
7263;SDS011;3673;52.480;13.348;2022-10-15T08:51:21;12.20;;;9.98;;
7263;SDS011;3673;52.480;13.348;2022-10-15T08:53:52;10.20;;;9.10;;
7263;SDS011;3673;52.480;13.348;2022-10-15T08:56:23;13.07;;;10.18;;
7263;SDS011;3673;52.480;13.348;2022-10-15T08:58:56;13.13;;;9.80;;
7263;SDS011;3673;52.480;13.348;2022-10-15T09:01:30;12.38;;;9.65;;
7263;SDS011;3673;52.480;13.348;2022-10-15T09:04:06;11.65;;;8.93;;
7263;SDS011;3673;52.480;13.348;2022-10-15T09:06:44;11.07;;;8.65;;
7263;SDS011;3673;52.480;13.348;2022-10-15T09:09:16;10.63;;;9.52;;
7263;SDS011;3673;52.480;13.348;2022-10-15T09:11:53;13.27;;;9.05;;
7263;SDS011;3673;52.480;13.348;2022-10-15T09:14:30;10.63;;;8.05;;
7263;SDS011;3673;52.480;13.348;2022-10-15T09:17:03;9.45;;;8.40;;
7263;SDS011;3673;52.480;13.348;2022-10-15T09:19:40;9.60;;;8.10;;
7263;SDS011;3673;52.480;13.348;2022-10-15T09:22:11;9.57;;;7.88;;
7263;SDS011;3673;52.480;13.348;2022-10-15T09:24:43;9.43;;;8.05;;
7263;SDS011;3673;52.480;13.348;2022-10-15T09:27:11;9.85;;;7.25;;
7263;SDS011;3673;52.480;13.348;2022-10-15T09:29:50;8.85;;;7.95;;
7263;SDS011;3673;52.480;13.348;2022-10-15T09:32:24;10.63;;;7.95;;
7263;SDS011;3673;52.480;13.348;2022-10-15T09:35:02;9.35;;;7.68;;
7263;SDS011;3673;52.480;13.348;2022-10-15T09:37:41;8.95;;;7.78;;
7263;SDS011;3673;52.480;13.348;2022-10-15T09:40:25;9.80;;;7.72;;
7263;SDS011;3673;52.480;13.348;2022-10-15T09:43:02;10.27;;;8.50;;
7263;SDS011;3673;52.480;13.348;2022-10-15T09:45:31;8.98;;;7.47;;
7263;SDS011;3673;52.480;13.348;2022-10-15T09:47:58;9.30;;;8.02;;
7263;SDS011;3673;52.480;13.348;2022-10-15T09:50:31;9.95;;;7.30;;
7263;SDS011;3673;52.480;13.348;2022-10-15T09:53:09;8.32;;;7.30;;
7263;SDS011;3673;52.480;13.348;2022-10-15T09:55:45;8.20;;;7.40;;
7263;SDS011;3673;52.480;13.348;2022-10-15T09:58:17;8.23;;;7.38;;
7263;SDS011;3673;52.480;13.348;2022-10-15T10:00:55;10.23;;;8.20;;
7263;SDS011;3673;52.480;13.348;2022-10-15T10:03:25;9.63;;;7.72;;
7263;SDS011;3673;52.480;13.348;2022-10-15T10:06:05;16.40;;;7.45;;
7263;SDS011;3673;52.480;13.348;2022-10-15T10:08:36;7.93;;;7.05;;
7263;SDS011;3673;52.480;13.348;2022-10-15T10:11:06;9.55;;;6.70;;
7263;SDS011;3673;52.480;13.348;2022-10-15T10:13:37;9.65;;;6.57;;
7263;SDS011;3673;52.480;13.348;2022-10-15T10:16:11;8.68;;;6.90;;
7263;SDS011;3673;52.480;13.348;2022-10-15T10:18:42;7.85;;;6.72;;
7263;SDS011;3673;52.480;13.348;2022-10-15T10:21:29;21.65;;;14.40;;
7263;SDS011;3673;52.480;13.348;2022-10-15T10:23:59;9.35;;;6.93;;
7263;SDS011;3673;52.480;13.348;2022-10-15T10:26:54;16.98;;;11.93;;
7263;SDS011;3673;52.480;13.348;2022-10-15T10:29:28;10.63;;;7.18;;
7263;SDS011;3673;52.480;13.348;2022-10-15T10:32:08;7.38;;;5.93;;
7263;SDS011;3673;52.480;13.348;2022-10-15T10:34:38;7.22;;;6.53;;
7263;SDS011;3673;52.480;13.348;2022-10-15T10:37:10;9.73;;;7.55;;
7263;SDS011;3673;52.480;13.348;2022-10-15T10:39:37;7.20;;;5.95;;
7263;SDS011;3673;52.480;13.348;2022-10-15T10:42:05;7.97;;;5.80;;
7263;SDS011;3673;52.480;13.348;2022-10-15T10:44:47;10.30;;;7.70;;
7263;SDS011;3673;52.480;13.348;2022-10-15T10:47:15;8.23;;;6.35;;
7263;SDS011;3673;52.480;13.348;2022-10-15T10:49:45;8.38;;;6.57;;
7263;SDS011;3673;52.480;13.348;2022-10-15T10:52:22;6.80;;;5.93;;
7263;SDS011;3673;52.480;13.348;2022-10-15T10:54:54;8.23;;;6.57;;
7263;SDS011;3673;52.480;13.348;2022-10-15T10:57:39;7.45;;;6.63;;
7263;SDS011;3673;52.480;13.348;2022-10-15T11:00:11;8.25;;;6.97;;
7263;SDS011;3673;52.480;13.348;2022-10-15T11:02:43;8.10;;;7.05;;
7263;SDS011;3673;52.480;13.348;2022-10-15T11:05:10;7.45;;;6.50;;
7263;SDS011;3673;52.480;13.348;2022-10-15T11:07:40;7.60;;;6.32;;
7263;SDS011;3673;52.480;13.348;2022-10-15T11:10:20;7.55;;;6.45;;
7263;SDS011;3673;52.480;13.348;2022-10-15T11:12:56;7.45;;;5.70;;
7263;SDS011;3673;52.480;13.348;2022-10-15T11:15:35;6.00;;;5.40;;
7263;SDS011;3673;52.480;13.348;2022-10-15T11:18:17;5.45;;;4.90;;
7263;SDS011;3673;52.480;13.348;2022-10-15T11:20:57;8.02;;;5.30;;
7263;SDS011;3673;52.480;13.348;2022-10-15T11:23:41;6.45;;;5.82;;
7263;SDS011;3673;52.480;13.348;2022-10-15T11:26:31;6.25;;;5.22;;
7263;SDS011;3673;52.480;13.348;2022-10-15T11:29:14;6.25;;;4.97;;
7263;SDS011;3673;52.480;13.348;2022-10-15T11:31:53;5.97;;;5.30;;
7263;SDS011;3673;52.480;13.348;2022-10-15T11:34:35;6.25;;;5.53;;
7263;SDS011;3673;52.480;13.348;2022-10-15T11:37:21;5.68;;;5.18;;
7263;SDS011;3673;52.480;13.348;2022-10-15T11:40:13;5.32;;;4.82;;
7263;SDS011;3673;52.480;13.348;2022-10-15T11:42:52;6.72;;;5.30;;
7263;SDS011;3673;52.480;13.348;2022-10-15T11:45:29;7.30;;;4.90;;
7263;SDS011;3673;52.480;13.348;2022-10-15T11:48:15;5.20;;;4.72;;
7263;SDS011;3673;52.480;13.348;2022-10-15T11:50:55;8.35;;;5.07;;
7263;SDS011;3673;52.480;13.348;2022-10-15T11:53:38;7.57;;;6.85;;
7263;SDS011;3673;52.480;13.348;2022-10-15T11:56:36;6.18;;;4.93;;
7263;SDS011;3673;52.480;13.348;2022-10-15T11:59:12;4.47;;;4.07;;
7263;SDS011;3673;52.480;13.348;2022-10-15T12:01:48;6.40;;;4.80;;
7263;SDS011;3673;52.480;13.348;2022-10-15T12:04:22;6.15;;;4.40;;
7263;SDS011;3673;52.480;13.348;2022-10-15T12:06:56;4.45;;;4.05;;
7263;SDS011;3673;52.480;13.348;2022-10-15T12:09:27;4.78;;;4.15;;
7263;SDS011;3673;52.480;13.348;2022-10-15T12:12:04;5.30;;;4.18;;
7263;SDS011;3673;52.480;13.348;2022-10-15T12:17:13;5.00;;;3.90;;
7263;SDS011;3673;52.480;13.348;2022-10-15T12:19:47;4.32;;;3.92;;
7263;SDS011;3673;52.480;13.348;2022-10-15T12:22:32;4.68;;;3.83;;
7263;SDS011;3673;52.480;13.348;2022-10-15T12:25:04;5.60;;;3.50;;
7263;SDS011;3673;52.480;13.348;2022-10-15T12:27:58;4.05;;;3.55;;
7263;SDS011;3673;52.480;13.348;2022-10-15T12:30:28;4.13;;;3.72;;
7263;SDS011;3673;52.480;13.348;2022-10-15T12:32:58;5.00;;;3.58;;
7263;SDS011;3673;52.480;13.348;2022-10-15T12:35:31;4.15;;;3.47;;
7263;SDS011;3673;52.480;13.348;2022-10-15T12:41:00;21.63;;;14.25;;
7263;SDS011;3673;52.480;13.348;2022-10-15T12:43:33;4.53;;;3.42;;
7263;SDS011;3673;52.480;13.348;2022-10-15T12:46:04;7.38;;;3.30;;
7263;SDS011;3673;52.480;13.348;2022-10-15T12:48:35;3.40;;;3.10;;
7263;SDS011;3673;52.480;13.348;2022-10-15T12:57:00;4.93;;;2.97;;
7263;SDS011;3673;52.480;13.348;2022-10-15T12:59:51;3.65;;;3.30;;
7263;SDS011;3673;52.480;13.348;2022-10-15T13:02:33;4.32;;;3.60;;
7263;SDS011;3673;52.480;13.348;2022-10-15T13:05:04;4.05;;;3.58;;
7263;SDS011;3673;52.480;13.348;2022-10-15T13:07:34;4.32;;;3.92;;
7263;SDS011;3673;52.480;13.348;2022-10-15T13:10:12;3.55;;;2.63;;
7263;SDS011;3673;52.480;13.348;2022-10-15T13:12:48;2.70;;;2.50;;
7263;SDS011;3673;52.480;13.348;2022-10-15T13:15:20;4.43;;;2.78;;
7263;SDS011;3673;52.480;13.348;2022-10-15T13:17:51;3.25;;;2.33;;
7263;SDS011;3673;52.480;13.348;2022-10-15T13:20:26;3.08;;;2.65;;
7263;SDS011;3673;52.480;13.348;2022-10-15T13:23:08;2.63;;;2.42;;
7263;SDS011;3673;52.480;13.348;2022-10-15T13:25:40;2.80;;;2.45;;
7263;SDS011;3673;52.480;13.348;2022-10-15T13:30:58;3.35;;;2.33;;
7263;SDS011;3673;52.480;13.348;2022-10-15T13:33:27;3.22;;;2.30;;
7263;SDS011;3673;52.480;13.348;2022-10-15T13:35:54;4.38;;;2.45;;
7263;SDS011;3673;52.480;13.348;2022-10-15T13:38:22;5.43;;;2.53;;
7263;SDS011;3673;52.480;13.348;2022-10-15T13:40:52;4.03;;;2.40;;
7263;SDS011;3673;52.480;13.348;2022-10-15T13:43:19;10.65;;;7.25;;
7263;SDS011;3673;52.480;13.348;2022-10-15T13:45:48;3.03;;;2.20;;
7263;SDS011;3673;52.480;13.348;2022-10-15T13:48:22;2.63;;;2.20;;
7263;SDS011;3673;52.480;13.348;2022-10-15T13:50:51;2.33;;;2.08;;
7263;SDS011;3673;52.480;13.348;2022-10-15T13:53:21;3.15;;;2.60;;
7263;SDS011;3673;52.480;13.348;2022-10-15T13:55:54;5.65;;;2.65;;
7263;SDS011;3673;52.480;13.348;2022-10-15T13:58:24;2.80;;;2.25;;
7263;SDS011;3673;52.480;13.348;2022-10-15T14:00:54;2.53;;;2.13;;
7263;SDS011;3673;52.480;13.348;2022-10-15T14:03:27;2.42;;;2.17;;
7263;SDS011;3673;52.480;13.348;2022-10-15T14:05:55;2.67;;;2.08;;
7263;SDS011;3673;52.480;13.348;2022-10-15T14:08:33;9.50;;;7.07;;
7263;SDS011;3673;52.480;13.348;2022-10-15T14:11:02;4.75;;;2.15;;
7263;SDS011;3673;52.480;13.348;2022-10-15T14:13:28;3.95;;;2.40;;
7263;SDS011;3673;52.480;13.348;2022-10-15T14:15:57;2.50;;;2.30;;
7263;SDS011;3673;52.480;13.348;2022-10-15T14:18:37;4.00;;;2.50;;
7263;SDS011;3673;52.480;13.348;2022-10-15T14:21:10;3.00;;;2.45;;
7263;SDS011;3673;52.480;13.348;2022-10-15T14:23:38;3.40;;;2.50;;
7263;SDS011;3673;52.480;13.348;2022-10-15T14:26:07;17.63;;;11.23;;
7263;SDS011;3673;52.480;13.348;2022-10-15T14:28:35;6.88;;;2.90;;
7263;SDS011;3673;52.480;13.348;2022-10-15T14:31:03;3.88;;;2.38;;
7263;SDS011;3673;52.480;13.348;2022-10-15T14:33:42;3.45;;;2.67;;
7263;SDS011;3673;52.480;13.348;2022-10-15T14:36:11;2.78;;;2.53;;
7263;SDS011;3673;52.480;13.348;2022-10-15T14:38:49;2.30;;;2.10;;
7263;SDS011;3673;52.480;13.348;2022-10-15T14:41:20;3.30;;;2.33;;
7263;SDS011;3673;52.480;13.348;2022-10-15T14:44:16;4.53;;;2.53;;
7263;SDS011;3673;52.480;13.348;2022-10-15T14:46:44;3.42;;;2.35;;
7263;SDS011;3673;52.480;13.348;2022-10-15T14:49:19;3.17;;;2.40;;
7263;SDS011;3673;52.480;13.348;2022-10-15T14:51:51;5.10;;;2.47;;
7263;SDS011;3673;52.480;13.348;2022-10-15T14:54:22;2.45;;;2.25;;
7263;SDS011;3673;52.480;13.348;2022-10-15T14:59:27;3.00;;;2.42;;
7263;SDS011;3673;52.480;13.348;2022-10-15T15:01:59;2.20;;;2.00;;
7263;SDS011;3673;52.480;13.348;2022-10-15T15:04:37;2.20;;;2.00;;
7263;SDS011;3673;52.480;13.348;2022-10-15T15:07:14;3.40;;;2.25;;
7263;SDS011;3673;52.480;13.348;2022-10-15T15:09:46;8.07;;;5.25;;
7263;SDS011;3673;52.480;13.348;2022-10-15T15:12:14;4.75;;;2.70;;
7263;SDS011;3673;52.480;13.348;2022-10-15T15:14:46;4.78;;;3.10;;
7263;SDS011;3673;52.480;13.348;2022-10-15T15:17:14;9.63;;;6.15;;
7263;SDS011;3673;52.480;13.348;2022-10-15T15:19:45;6.95;;;4.78;;
7263;SDS011;3673;52.480;13.348;2022-10-15T15:22:12;7.85;;;5.85;;
7263;SDS011;3673;52.480;13.348;2022-10-15T15:24:41;7.22;;;5.15;;
7263;SDS011;3673;52.480;13.348;2022-10-15T15:27:11;9.30;;;5.93;;
7263;SDS011;3673;52.480;13.348;2022-10-15T15:29:49;6.45;;;4.82;;
7263;SDS011;3673;52.480;13.348;2022-10-15T15:32:16;5.78;;;3.80;;